Time,TemperatureF,DewpointF,PressureIn,WindDirection,WindDirectionDegrees,WindSpeedMPH,WindSpeedGustMPH,Humidity,HourlyPrecipIn,Conditions,Clouds,dailyrainin,SoftwareType,DateUTC
2017-07-22 00:00:00,70.5,67.4,29.96,WNW,294,0.0,0.0,90,0.00,,-RA,0.00,VWS V15.00,2017-07-22 04:00:00,
2017-07-22 00:05:00,70.4,67.3,29.96,WNW,294,0.0,0.0,90,0.00,,-RA,0.00,VWS V15.00,2017-07-22 04:05:00,
2017-07-22 00:10:00,70.3,67.2,29.96,WNW,294,0.0,0.0,90,0.00,,-RA,0.00,VWS V15.00,2017-07-22 04:10:00,
2017-07-22 00:15:00,70.3,67.2,29.96,WNW,294,0.0,0.0,90,0.00,,-RA,0.00,VWS V15.00,2017-07-22 04:15:00,
2017-07-22 00:20:00,70.3,67.6,29.96,WNW,294,0.0,0.0,91,0.00,,-RA,0.00,VWS V15.00,2017-07-22 04:20:00,
2017-07-22 00:25:00,70.2,67.4,29.96,WNW,294,0.0,0.0,91,0.00,,-RA,0.00,VWS V15.00,2017-07-22 04:25:00,
2017-07-22 00:30:00,70.3,67.6,29.96,WNW,294,0.0,0.0,91,0.00,,-RA,0.00,VWS V15.00,2017-07-22 04:30:00,
2017-07-22 00:35:00,70.3,67.6,29.96,WNW,294,0.0,0.0,91,0.00,,-RA,0.00,VWS V15.00,2017-07-22 04:35:00,
2017-07-22 00:40:00,70.3,67.6,29.96,WNW,294,0.0,0.0,91,0.00,,-RA,0.00,VWS V15.00,2017-07-22 04:40:00,
2017-07-22 00:45:00,70.3,67.6,29.96,WNW,294,0.0,0.0,91,0.00,,-RA,0.00,VWS V15.00,2017-07-22 04:45:00,
2017-07-22 00:50:00,70.3,67.6,29.97,WNW,294,0.0,0.0,91,0.00,,-RA,0.00,VWS V15.00,2017-07-22 04:50:00,
2017-07-22 00:55:00,70.3,67.6,29.97,WNW,294,0.0,0.0,91,0.00,,-RA,0.00,VWS V15.00,2017-07-22 04:55:00,
2017-07-22 01:00:00,70.3,67.2,29.97,WNW,294,0.0,0.0,90,0.00,,-RA,0.00,VWS V15.00,2017-07-22 05:00:00,
2017-07-22 01:05:00,70.3,67.2,29.97,WNW,294,0.0,0.0,90,0.00,,-RA,0.00,VWS V15.00,2017-07-22 05:05:00,
2017-07-22 01:10:00,70.3,67.2,29.97,WNW,294,0.0,0.0,90,0.00,,-RA,0.00,VWS V15.00,2017-07-22 05:10:00,
2017-07-22 01:15:00,70.3,67.2,29.96,WNW,294,0.0,0.0,90,0.00,,-RA,0.00,VWS V15.00,2017-07-22 05:15:00,
2017-07-22 01:20:00,70.3,67.2,29.96,WNW,294,0.0,0.0,90,0.00,,-RA,0.00,VWS V15.00,2017-07-22 05:20:00,
2017-07-22 01:25:00,70.3,67.2,29.96,WNW,294,0.0,0.0,90,0.00,,-RA,0.00,VWS V15.00,2017-07-22 05:25:00,
2017-07-22 01:30:00,70.3,67.2,29.96,WNW,294,0.0,0.0,90,0.00,,-RA,0.00,VWS V15.00,2017-07-22 05:30:00,
2017-07-22 01:35:00,70.4,67.3,29.95,WNW,294,0.0,0.0,90,0.00,,-RA,0.00,VWS V15.00,2017-07-22 05:35:00,
2017-07-22 01:40:00,70.4,67.3,29.95,WNW,294,0.0,0.0,90,0.00,,-RA,0.00,VWS V15.00,2017-07-22 05:40:00,
2017-07-22 01:45:00,70.4,67.3,29.95,WNW,294,0.0,0.0,90,0.00,,-RA,0.00,VWS V15.00,2017-07-22 05:45:00,
2017-07-22 01:50:00,70.4,67.3,29.95,WNW,294,0.0,0.0,90,0.00,,-RA,0.00,VWS V15.00,2017-07-22 05:50:00,
2017-07-22 01:51:00,70.4,67.3,29.95,WNW,294,0.0,0.0,90,0.00,,-RA,0.00,VWS V15.00,2017-07-22 05:51:00,
2017-07-22 01:56:00,70.3,67.2,29.95,WNW,294,0.0,0.0,90,0.00,,-RA,0.00,VWS V15.00,2017-07-22 05:56:00,
2017-07-22 02:01:00,70.4,67.3,29.95,WNW,294,0.0,0.0,90,0.00,,-RA,0.00,VWS V15.00,2017-07-22 06:01:00,
2017-07-22 02:06:00,70.4,67.3,29.94,WNW,294,0.0,0.0,90,0.00,,-RA,0.00,VWS V15.00,2017-07-22 06:06:00,
2017-07-22 02:11:00,70.4,67.3,29.94,WNW,294,0.0,0.0,90,0.00,,-RA,0.00,VWS V15.00,2017-07-22 06:11:00,
2017-07-22 02:16:00,70.3,67.2,29.94,WNW,294,0.0,0.0,90,0.00,,-RA,0.00,VWS V15.00,2017-07-22 06:16:00,
2017-07-22 02:21:00,70.2,66.8,29.93,WNW,294,0.0,0.0,89,0.00,,-RA,0.00,VWS V15.00,2017-07-22 06:21:00,
2017-07-22 02:26:00,70.1,66.7,29.92,WNW,294,0.0,0.0,89,0.00,,-RA,0.00,VWS V15.00,2017-07-22 06:26:00,
2017-07-22 02:31:00,70.1,66.7,29.92,WNW,294,0.0,0.0,89,0.00,,-RA,0.00,VWS V15.00,2017-07-22 06:31:00,
2017-07-22 02:36:00,69.9,66.8,29.91,WNW,294,0.0,0.0,90,0.00,,-RA,0.00,VWS V15.00,2017-07-22 06:36:00,
2017-07-22 02:41:00,69.8,66.7,29.91,WNW,294,0.0,0.0,90,0.00,,-RA,0.00,VWS V15.00,2017-07-22 06:41:00,
2017-07-22 02:46:00,69.5,66.1,29.91,WNW,294,0.0,0.0,89,0.00,,-RA,0.00,VWS V15.00,2017-07-22 06:46:00,
2017-07-22 02:51:00,69.3,66.2,29.91,WNW,294,0.0,0.0,90,0.00,,-RA,0.00,VWS V15.00,2017-07-22 06:51:00,
2017-07-22 02:56:00,69.1,66.1,29.90,WNW,294,0.0,0.0,90,0.00,,-RA,0.00,VWS V15.00,2017-07-22 06:56:00,
2017-07-22 03:01:00,69.0,65.9,29.90,WNW,294,0.0,0.0,90,0.00,,-RA,0.00,VWS V15.00,2017-07-22 07:01:00,
2017-07-22 03:06:00,68.8,65.8,29.90,WNW,294,0.0,0.0,90,0.00,,-RA,0.00,VWS V15.00,2017-07-22 07:06:00,
2017-07-22 03:11:00,68.8,66.1,29.90,WNW,294,0.0,0.0,91,0.00,,-RA,0.00,VWS V15.00,2017-07-22 07:11:00,
2017-07-22 03:16:00,68.7,66.0,29.90,WNW,294,0.0,0.0,91,0.00,,-RA,0.00,VWS V15.00,2017-07-22 07:16:00,
2017-07-22 03:21:00,68.5,65.8,29.89,WNW,294,0.0,0.0,91,0.00,,-RA,0.00,VWS V15.00,2017-07-22 07:21:00,
2017-07-22 03:26:00,68.5,65.8,29.90,WNW,294,0.0,0.0,91,0.00,,-RA,0.00,VWS V15.00,2017-07-22 07:26:00,
2017-07-22 03:31:00,68.6,65.9,29.90,WNW,294,0.0,0.0,91,0.00,,-RA,0.00,VWS V15.00,2017-07-22 07:31:00,
2017-07-22 03:36:00,68.7,66.0,29.90,WNW,294,0.0,0.0,91,0.00,,-RA,0.00,VWS V15.00,2017-07-22 07:36:00,
2017-07-22 03:41:00,68.7,66.0,29.91,WNW,294,0.0,0.0,91,0.00,,-RA,0.00,VWS V15.00,2017-07-22 07:41:00,
2017-07-22 03:46:00,68.7,66.0,29.91,WNW,294,0.0,0.0,91,0.00,,-RA,0.00,VWS V15.00,2017-07-22 07:46:00,
2017-07-22 03:51:00,68.7,66.0,29.91,WNW,294,0.0,0.0,91,0.00,,-RA,0.00,VWS V15.00,2017-07-22 07:51:00,
2017-07-22 03:56:00,68.7,66.0,29.91,WNW,294,0.0,0.0,91,0.00,,-RA,0.00,VWS V15.00,2017-07-22 07:56:00,
2017-07-22 04:01:00,68.7,66.0,29.91,WNW,294,0.0,0.0,91,0.00,,-RA,0.00,VWS V15.00,2017-07-22 08:01:00,
2017-07-22 04:06:00,68.7,66.0,29.91,WNW,294,0.0,0.0,91,0.00,,-RA,0.00,VWS V15.00,2017-07-22 08:06:00,
2017-07-22 04:11:00,68.7,66.0,29.91,WNW,294,0.0,0.0,91,0.00,,-RA,0.00,VWS V15.00,2017-07-22 08:11:00,
2017-07-22 04:16:00,68.7,65.7,29.91,WNW,294,0.0,0.0,90,0.00,,-RA,0.00,VWS V15.00,2017-07-22 08:16:00,
2017-07-22 04:21:00,68.7,65.7,29.91,WNW,294,0.0,0.0,90,0.00,,-RA,0.00,VWS V15.00,2017-07-22 08:21:00,
2017-07-22 04:26:00,68.7,65.7,29.90,WNW,294,0.0,0.0,90,0.00,,-RA,0.00,VWS V15.00,2017-07-22 08:26:00,
2017-07-22 04:31:00,68.8,65.8,29.90,WNW,294,0.0,0.0,90,0.00,,-RA,0.00,VWS V15.00,2017-07-22 08:31:00,
2017-07-22 04:36:00,68.8,65.4,29.90,WNW,294,0.0,0.0,89,0.00,,-RA,0.00,VWS V15.00,2017-07-22 08:36:00,
2017-07-22 04:41:00,68.9,65.5,29.90,SSE,155,0.0,0.0,89,0.00,,-RA,0.00,VWS V15.00,2017-07-22 08:41:00,
2017-07-22 04:46:00,68.9,65.5,29.90,SE,142,0.0,0.0,89,0.00,,-RA,0.00,VWS V15.00,2017-07-22 08:46:00,
2017-07-22 04:51:00,68.9,65.5,29.90,SE,142,0.0,0.0,89,0.00,,-RA,0.00,VWS V15.00,2017-07-22 08:51:00,
2017-07-22 04:56:00,68.9,65.2,29.90,SE,142,0.0,0.0,88,0.00,,-RA,0.00,VWS V15.00,2017-07-22 08:56:00,
2017-07-22 05:01:00,68.9,65.2,29.90,SE,142,0.0,0.0,88,0.00,,-RA,0.00,VWS V15.00,2017-07-22 09:01:00,
2017-07-22 05:06:00,69.0,65.3,29.90,SE,142,0.0,0.0,88,0.00,,-RA,0.00,VWS V15.00,2017-07-22 09:06:00,
2017-07-22 05:11:00,69.1,65.4,29.90,SE,143,0.0,0.0,88,0.00,,-RA,0.00,VWS V15.00,2017-07-22 09:11:00,
2017-07-22 05:16:00,69.1,65.4,29.90,SE,143,0.0,0.0,88,0.00,,-RA,0.00,VWS V15.00,2017-07-22 09:16:00,
2017-07-22 05:21:00,69.2,65.5,29.90,SE,142,0.0,0.0,88,0.00,,-RA,0.00,VWS V15.00,2017-07-22 09:21:00,
2017-07-22 05:26:00,69.3,65.6,29.90,SE,142,0.0,0.0,88,0.00,,-RA,0.00,VWS V15.00,2017-07-22 09:26:00,
2017-07-22 05:31:00,69.4,65.7,29.90,SE,142,0.0,0.0,88,0.00,,-RA,0.00,VWS V15.00,2017-07-22 09:31:00,
2017-07-22 05:36:00,69.5,65.8,29.90,SE,142,0.0,0.0,88,0.00,,-RA,0.00,VWS V15.00,2017-07-22 09:36:00,
2017-07-22 05:41:00,69.6,65.9,29.90,SE,142,0.0,0.0,88,0.00,,-RA,0.00,VWS V15.00,2017-07-22 09:41:00,
2017-07-22 05:46:00,69.7,66.0,29.90,SE,142,0.0,0.0,88,0.00,,-RA,0.00,VWS V15.00,2017-07-22 09:46:00,
2017-07-22 05:51:00,69.7,65.7,29.90,SE,142,0.0,0.0,87,0.00,,-RA,0.00,VWS V15.00,2017-07-22 09:51:00,
2017-07-22 05:56:00,69.8,65.8,29.89,SE,142,0.0,0.0,87,0.00,,-RA,0.00,VWS V15.00,2017-07-22 09:56:00,
2017-07-22 06:01:00,69.8,65.8,29.90,SE,142,0.0,0.0,87,0.00,,-RA,0.00,VWS V15.00,2017-07-22 10:01:00,
2017-07-22 06:06:00,69.9,65.9,29.90,SE,142,0.0,0.0,87,0.00,,-RA,0.00,VWS V15.00,2017-07-22 10:06:00,
2017-07-22 06:11:00,70.1,66.1,29.90,SE,142,0.0,0.0,87,0.00,,-RA,0.00,VWS V15.00,2017-07-22 10:11:00,
2017-07-22 06:16:00,70.2,66.2,29.90,SE,142,0.0,0.0,87,0.00,,-RA,0.00,VWS V15.00,2017-07-22 10:16:00,
2017-07-22 06:21:00,70.2,65.8,29.90,SE,142,0.0,0.0,86,0.00,,-RA,0.00,VWS V15.00,2017-07-22 10:21:00,
2017-07-22 06:26:00,70.3,65.9,29.90,SE,142,0.0,0.0,86,0.00,,-RA,0.00,VWS V15.00,2017-07-22 10:26:00,
2017-07-22 06:31:00,70.3,65.9,29.90,SE,142,0.0,0.0,86,0.00,,-RA,0.00,VWS V15.00,2017-07-22 10:31:00,
2017-07-22 06:36:00,70.4,66.0,29.90,SE,137,0.0,0.0,86,0.00,,-RA,0.00,VWS V15.00,2017-07-22 10:36:00,
2017-07-22 06:41:00,70.5,66.1,29.89,SE,137,0.0,0.0,86,0.00,,-RA,0.00,VWS V15.00,2017-07-22 10:41:00,
2017-07-22 06:46:00,70.6,66.2,29.90,SE,137,0.0,0.0,86,0.00,,-RA,0.00,VWS V15.00,2017-07-22 10:46:00,
2017-07-22 06:51:00,70.7,66.3,29.90,SE,137,0.0,0.0,86,0.00,,-RA,0.00,VWS V15.00,2017-07-22 10:51:00,
2017-07-22 06:56:00,70.9,66.5,29.90,SE,137,0.0,0.0,86,0.00,,-RA,0.00,VWS V15.00,2017-07-22 10:56:00,
2017-07-22 07:01:00,71.0,66.3,29.90,SE,137,0.0,0.0,85,0.00,,-RA,0.00,VWS V15.00,2017-07-22 11:01:00,
2017-07-22 07:06:00,71.2,66.5,29.90,SE,137,0.0,0.0,85,0.00,,-RA,0.00,VWS V15.00,2017-07-22 11:06:00,
2017-07-22 07:11:00,71.3,66.6,29.90,SE,137,0.0,0.0,85,0.00,,-RA,0.00,VWS V15.00,2017-07-22 11:11:00,
2017-07-22 07:17:00,71.4,66.7,29.89,SE,137,0.0,0.0,85,0.00,,-RA,0.00,VWS V15.00,2017-07-22 11:17:00,
2017-07-22 07:22:00,71.5,66.8,29.89,SE,137,0.0,0.0,85,0.00,,-RA,0.00,VWS V15.00,2017-07-22 11:22:00,
2017-07-22 07:27:00,71.6,66.5,29.89,SE,137,0.0,0.0,84,0.00,,-RA,0.00,VWS V15.00,2017-07-22 11:27:00,
2017-07-22 07:32:00,71.7,66.6,29.88,SE,137,0.0,0.0,84,0.00,,-RA,0.00,VWS V15.00,2017-07-22 11:32:00,
2017-07-22 07:37:00,72.0,66.9,29.89,SE,137,0.0,0.0,84,0.00,,-RA,0.00,VWS V15.00,2017-07-22 11:37:00,
2017-07-22 07:42:00,72.3,67.2,29.89,SE,137,0.0,0.0,84,0.00,,-RA,0.00,VWS V15.00,2017-07-22 11:42:00,
2017-07-22 07:47:00,72.5,67.1,29.88,SE,137,0.0,0.0,83,0.00,,-RA,0.00,VWS V15.00,2017-07-22 11:47:00,
2017-07-22 07:52:00,72.6,67.2,29.88,SE,137,0.0,0.0,83,0.00,,-RA,0.00,VWS V15.00,2017-07-22 11:52:00,
2017-07-22 07:57:00,72.7,67.2,29.88,SE,137,0.0,0.0,83,0.00,,-RA,0.00,VWS V15.00,2017-07-22 11:57:00,
2017-07-22 08:02:00,72.8,67.3,29.88,SE,137,0.0,0.0,83,0.00,,-RA,0.00,VWS V15.00,2017-07-22 12:02:00,
2017-07-22 08:07:00,72.9,67.1,29.88,SE,137,0.0,0.0,82,0.00,,-RA,0.00,VWS V15.00,2017-07-22 12:07:00,
2017-07-22 08:12:00,73.1,67.3,29.89,SE,136,0.0,0.0,82,0.00,,-RA,0.00,VWS V15.00,2017-07-22 12:12:00,
2017-07-22 08:17:00,73.2,67.4,29.89,SE,137,0.0,0.0,82,0.00,,-RA,0.00,VWS V15.00,2017-07-22 12:17:00,
2017-07-22 08:22:00,73.2,67.4,29.89,SE,137,0.0,0.0,82,0.00,,-RA,0.00,VWS V15.00,2017-07-22 12:22:00,
2017-07-22 08:27:00,73.3,67.5,29.89,SE,137,0.0,0.0,82,0.00,,-RA,0.00,VWS V15.00,2017-07-22 12:27:00,
2017-07-22 08:32:00,73.3,67.5,29.88,SE,142,0.0,0.0,82,0.00,,-RA,0.00,VWS V15.00,2017-07-22 12:32:00,
2017-07-22 08:37:00,73.3,67.5,29.88,SE,142,0.0,0.0,82,0.00,,-RA,0.00,VWS V15.00,2017-07-22 12:37:00,
2017-07-22 08:42:00,73.3,67.5,29.88,SE,142,0.0,0.0,82,0.00,,-RA,0.00,VWS V15.00,2017-07-22 12:42:00,
2017-07-22 08:47:00,73.4,67.9,29.89,SE,142,0.0,0.0,83,0.00,,-RA,0.00,VWS V15.00,2017-07-22 12:47:00,
2017-07-22 08:52:00,73.4,67.9,29.89,SE,142,0.0,0.0,83,0.00,,-RA,0.00,VWS V15.00,2017-07-22 12:52:00,
2017-07-22 08:57:00,73.3,67.8,29.89,SE,142,0.0,0.0,83,0.00,,-RA,0.00,VWS V15.00,2017-07-22 12:57:00,
2017-07-22 09:02:00,73.4,67.9,29.90,SE,142,0.0,0.0,83,0.00,,-RA,0.00,VWS V15.00,2017-07-22 13:02:00,
2017-07-22 09:07:00,73.4,68.3,29.90,SE,142,0.0,0.0,84,0.00,,-RA,0.00,VWS V15.00,2017-07-22 13:07:00,
2017-07-22 09:12:00,73.4,68.3,29.90,SE,142,0.0,0.0,84,0.00,,-RA,0.00,VWS V15.00,2017-07-22 13:12:00,
2017-07-22 09:17:00,73.4,68.3,29.90,SE,142,0.0,0.0,84,0.00,,-RA,0.00,VWS V15.00,2017-07-22 13:17:00,
2017-07-22 09:22:00,73.4,68.3,29.89,SE,142,0.0,0.0,84,0.00,,-RA,0.00,VWS V15.00,2017-07-22 13:22:00,
2017-07-22 09:23:00,73.4,68.3,29.89,SE,142,0.0,0.0,84,0.00,,-RA,0.00,VWS V15.00,2017-07-22 13:23:00,
2017-07-22 09:28:00,73.5,68.4,29.89,SE,142,0.0,0.0,84,0.00,,-RA,0.00,VWS V15.00,2017-07-22 13:28:00,
2017-07-22 09:33:00,73.5,68.4,29.89,SE,142,0.0,0.0,84,0.00,,-RA,0.00,VWS V15.00,2017-07-22 13:33:00,
2017-07-22 09:38:00,73.6,68.5,29.89,SE,142,0.0,0.0,84,0.00,,-RA,0.00,VWS V15.00,2017-07-22 13:38:00,
2017-07-22 09:43:00,73.6,68.5,29.88,SE,142,0.0,0.0,84,0.00,,-RA,0.00,VWS V15.00,2017-07-22 13:43:00,
2017-07-22 09:48:00,73.6,68.5,29.88,SE,144,0.0,0.0,84,0.00,,-RA,0.00,VWS V15.00,2017-07-22 13:48:00,
2017-07-22 09:53:00,73.7,68.6,29.87,SE,129,0.0,3.0,84,0.00,,-RA,0.00,VWS V15.00,2017-07-22 13:53:00,
2017-07-22 09:58:00,73.9,68.8,29.86,SE,140,0.0,3.0,84,0.00,,-RA,0.00,VWS V15.00,2017-07-22 13:58:00,
2017-07-22 10:03:00,74.1,69.0,29.86,SE,140,0.0,0.0,84,0.00,,-RA,0.00,VWS V15.00,2017-07-22 14:03:00,
2017-07-22 10:08:00,74.3,69.2,29.86,SE,140,0.0,2.0,84,0.00,,-RA,0.00,VWS V15.00,2017-07-22 14:08:00,
2017-07-22 10:13:00,74.5,69.3,29.86,SE,140,0.0,2.0,84,0.00,,-RA,0.00,VWS V15.00,2017-07-22 14:13:00,
2017-07-22 10:18:00,74.6,69.1,29.86,SE,140,0.0,2.0,83,0.00,,-RA,0.00,VWS V15.00,2017-07-22 14:18:00,
2017-07-22 10:23:00,74.7,69.2,29.86,SSE,154,2.0,2.0,83,0.00,,-RA,0.00,VWS V15.00,2017-07-22 14:23:00,
2017-07-22 10:28:00,74.8,69.3,29.86,SSE,155,0.0,2.0,83,0.00,,-RA,0.00,VWS V15.00,2017-07-22 14:28:00,
2017-07-22 10:33:00,74.9,69.4,29.86,SE,126,0.0,7.0,83,0.00,,-RA,0.00,VWS V15.00,2017-07-22 14:33:00,
2017-07-22 10:38:00,75.0,69.5,29.85,SSE,155,0.0,7.0,83,0.00,,-RA,0.00,VWS V15.00,2017-07-22 14:38:00,
2017-07-22 10:43:00,75.1,69.9,29.86,SSE,155,0.0,7.0,84,0.00,,-RA,0.00,VWS V15.00,2017-07-22 14:43:00,
2017-07-22 10:48:00,75.1,69.9,29.86,SSE,150,0.0,7.0,84,0.00,,-RA,0.00,VWS V15.00,2017-07-22 14:48:00,
2017-07-22 10:53:00,75.2,70.0,29.85,SE,141,0.0,7.0,84,0.00,,-RA,0.00,VWS V15.00,2017-07-22 14:53:00,
2017-07-22 10:58:00,75.4,70.2,29.85,SE,140,0.0,7.0,84,0.00,,-RA,0.00,VWS V15.00,2017-07-22 14:58:00,
2017-07-22 11:03:00,75.5,70.7,29.85,SE,138,0.0,3.0,85,0.00,,-RA,0.00,VWS V15.00,2017-07-22 15:03:00,
2017-07-22 11:08:00,75.5,70.7,29.85,SE,132,0.0,4.0,85,0.00,,-RA,0.00,VWS V15.00,2017-07-22 15:08:00,
2017-07-22 11:13:00,75.6,71.1,29.85,SE,136,0.0,4.0,86,0.00,,-RA,0.00,VWS V15.00,2017-07-22 15:13:00,
2017-07-22 11:18:00,75.7,71.2,29.85,SE,136,0.0,4.0,86,0.00,,-RA,0.00,VWS V15.00,2017-07-22 15:18:00,
2017-07-22 11:23:00,75.7,71.6,29.85,SE,138,0.0,4.0,87,0.00,,-RA,0.00,VWS V15.00,2017-07-22 15:23:00,
2017-07-22 11:28:00,75.7,71.6,29.84,SE,138,0.0,5.0,87,0.00,,-RA,0.00,VWS V15.00,2017-07-22 15:28:00,
2017-07-22 11:33:00,76.0,72.2,29.84,SSE,159,1.0,4.0,88,0.00,,-RA,0.00,VWS V15.00,2017-07-22 15:33:00,
2017-07-22 11:34:00,76.0,72.2,29.84,SSE,159,0.0,4.0,88,0.00,,-RA,0.00,VWS V15.00,2017-07-22 15:34:00,
2017-07-22 11:39:00,76.2,72.4,29.84,SE,139,3.0,4.0,88,0.00,,-RA,0.00,VWS V15.00,2017-07-22 15:39:00,
2017-07-22 11:44:00,76.3,72.5,29.84,SE,142,0.0,4.0,88,0.00,,-RA,0.00,VWS V15.00,2017-07-22 15:44:00,
2017-07-22 11:49:00,76.6,72.8,29.83,SE,142,0.0,4.0,88,0.00,,-RA,0.00,VWS V15.00,2017-07-22 15:49:00,
2017-07-22 11:54:00,76.7,72.9,29.83,ESE,123,1.0,6.0,88,0.00,,-RA,0.00,VWS V15.00,2017-07-22 15:54:00,
2017-07-22 11:59:00,77.0,73.2,29.84,South,169,0.0,6.0,88,0.00,,-RA,0.00,VWS V15.00,2017-07-22 15:59:00,
2017-07-22 12:04:00,77.3,73.5,29.84,South,169,0.0,0.0,88,0.00,,-RA,0.00,VWS V15.00,2017-07-22 16:04:00,
2017-07-22 12:09:00,77.7,73.9,29.83,South,169,0.0,0.0,88,0.00,,-RA,0.00,VWS V15.00,2017-07-22 16:09:00,
2017-07-22 12:14:00,78.0,73.8,29.83,SE,130,0.0,3.0,87,0.00,,-RA,0.00,VWS V15.00,2017-07-22 16:14:00,
2017-07-22 12:19:00,78.3,74.1,29.84,SE,136,2.0,4.0,87,0.00,,-RA,0.00,VWS V15.00,2017-07-22 16:19:00,
2017-07-22 12:24:00,78.3,74.1,29.84,SE,137,0.0,4.0,87,0.00,,-RA,0.00,VWS V15.00,2017-07-22 16:24:00,
2017-07-22 12:29:00,78.5,74.0,29.84,SE,139,0.0,4.0,86,0.00,,-RA,0.00,VWS V15.00,2017-07-22 16:29:00,
2017-07-22 12:34:00,78.7,74.2,29.84,SE,139,0.0,0.0,86,0.00,,-RA,0.00,VWS V15.00,2017-07-22 16:34:00,
2017-07-22 12:39:00,79.2,74.7,29.83,SSE,152,0.0,3.0,86,0.00,,-RA,0.00,VWS V15.00,2017-07-22 16:39:00,
2017-07-22 12:44:00,79.3,74.4,29.83,SE,138,0.0,4.0,85,0.00,,-RA,0.00,VWS V15.00,2017-07-22 16:44:00,
2017-07-22 12:49:00,79.5,74.6,29.83,SSE,148,0.0,5.0,85,0.00,,-RA,0.00,VWS V15.00,2017-07-22 16:49:00,
2017-07-22 12:54:00,79.8,74.9,29.83,SSE,154,2.0,5.0,85,0.00,,-RA,0.00,VWS V15.00,2017-07-22 16:54:00,
2017-07-22 12:59:00,80.0,75.1,29.83,SSE,154,0.0,5.0,85,0.00,,-RA,0.00,VWS V15.00,2017-07-22 16:59:00,
2017-07-22 13:04:00,80.3,75.0,29.82,East,96,0.0,3.0,84,0.00,,-RA,0.00,VWS V15.00,2017-07-22 17:04:00,
2017-07-22 13:09:00,80.5,75.2,29.83,East,97,0.0,3.0,84,0.00,,-RA,0.00,VWS V15.00,2017-07-22 17:09:00,
2017-07-22 13:14:00,80.7,75.1,29.83,East,97,0.0,3.0,83,0.00,,-RA,0.00,VWS V15.00,2017-07-22 17:14:00,
2017-07-22 13:19:00,80.9,75.3,29.82,East,97,0.0,3.0,83,0.00,,-RA,0.00,VWS V15.00,2017-07-22 17:19:00,
2017-07-22 13:24:00,80.6,74.6,29.82,SE,144,0.0,3.0,82,0.00,,-RA,0.00,VWS V15.00,2017-07-22 17:24:00,
2017-07-22 13:29:00,80.5,74.5,29.81,SE,141,2.0,4.0,82,0.00,,-RA,0.00,VWS V15.00,2017-07-22 17:29:00,
2017-07-22 13:35:00,80.2,73.8,29.81,SE,145,0.0,1.0,81,0.00,,-RA,0.00,VWS V15.00,2017-07-22 17:35:00,
2017-07-22 13:40:00,80.0,74.0,29.81,SE,144,0.0,1.0,82,0.00,,-RA,0.00,VWS V15.00,2017-07-22 17:40:00,
2017-07-22 13:45:00,79.9,73.9,29.81,SE,144,0.0,3.0,82,0.00,,-RA,0.00,VWS V15.00,2017-07-22 17:45:00,
2017-07-22 13:50:00,80.0,74.0,29.81,SE,146,0.0,3.0,82,0.00,,-RA,0.00,VWS V15.00,2017-07-22 17:50:00,
2017-07-22 13:55:00,79.9,73.9,29.80,SE,146,0.0,3.0,82,0.00,,-RA,0.00,VWS V15.00,2017-07-22 17:55:00,
2017-07-22 14:00:00,79.9,74.3,29.80,SE,140,2.0,3.0,83,0.00,,-RA,0.00,VWS V15.00,2017-07-22 18:00:00,
2017-07-22 14:05:00,79.8,74.2,29.80,SE,134,0.0,4.0,83,0.00,,-RA,0.00,VWS V15.00,2017-07-22 18:05:00,
2017-07-22 14:10:00,79.6,74.0,29.80,SE,134,0.0,4.0,83,0.00,,-RA,0.00,VWS V15.00,2017-07-22 18:10:00,
2017-07-22 14:15:00,79.6,74.3,29.79,SE,134,0.0,4.0,84,0.00,,-RA,0.00,VWS V15.00,2017-07-22 18:15:00,
2017-07-22 14:20:00,79.7,74.4,29.78,SE,133,0.0,4.0,84,0.00,,-RA,0.00,VWS V15.00,2017-07-22 18:20:00,
2017-07-22 14:25:00,79.6,74.3,29.78,SE,134,0.0,4.0,84,0.00,,-RA,0.00,VWS V15.00,2017-07-22 18:25:00,
2017-07-22 14:30:00,79.5,74.6,29.79,SE,134,1.0,4.0,85,0.00,,-RA,0.00,VWS V15.00,2017-07-22 18:30:00,
2017-07-22 14:35:00,79.4,74.5,29.79,SE,141,0.0,5.0,85,0.00,,-RA,0.00,VWS V15.00,2017-07-22 18:35:00,
2017-07-22 14:40:00,79.4,74.5,29.79,SE,142,0.0,5.0,85,0.00,,-RA,0.00,VWS V15.00,2017-07-22 18:40:00,
2017-07-22 14:45:00,79.5,74.6,29.79,SE,142,0.0,5.0,85,0.00,,-RA,0.00,VWS V15.00,2017-07-22 18:45:00,
2017-07-22 14:50:00,79.7,74.8,29.79,SE,142,0.0,5.0,85,0.00,,-RA,0.00,VWS V15.00,2017-07-22 18:50:00,
2017-07-22 14:55:00,79.7,74.4,29.79,SE,142,0.0,5.0,84,0.00,,-RA,0.00,VWS V15.00,2017-07-22 18:55:00,
2017-07-22 15:01:00,79.8,74.5,29.78,SE,142,0.0,5.0,84,0.00,,-RA,0.00,VWS V15.00,2017-07-22 19:01:00,
2017-07-22 15:06:00,80.0,74.4,29.78,SE,142,0.0,0.0,83,0.00,,-RA,0.00,VWS V15.00,2017-07-22 19:06:00,
2017-07-22 15:11:00,80.4,74.4,29.78,NNE,13,0.0,3.0,82,0.00,,-RA,0.00,VWS V15.00,2017-07-22 19:11:00,
2017-07-22 15:16:00,80.6,74.2,29.78,SSE,149,0.0,5.0,81,0.00,,-RA,0.00,VWS V15.00,2017-07-22 19:16:00,
2017-07-22 15:21:00,80.9,74.2,29.78,SSE,149,0.0,5.0,80,0.00,,-RA,0.00,VWS V15.00,2017-07-22 19:21:00,
2017-07-22 15:26:00,81.0,73.9,29.78,SSE,149,0.0,5.0,79,0.00,,-RA,0.00,VWS V15.00,2017-07-22 19:26:00,
2017-07-22 15:31:00,81.1,73.6,29.78,SSE,149,0.0,5.0,78,0.00,,-RA,0.00,VWS V15.00,2017-07-22 19:31:00,
2017-07-22 15:36:00,81.1,73.2,29.78,SSE,149,0.0,0.0,77,0.00,,-RA,0.00,VWS V15.00,2017-07-22 19:36:00,
2017-07-22 15:41:00,81.2,73.7,29.78,SSE,149,0.0,0.0,78,0.00,,-RA,0.00,VWS V15.00,2017-07-22 19:41:00,
2017-07-22 15:46:00,81.2,74.1,29.77,SSE,149,0.0,0.0,79,0.00,,-RA,0.00,VWS V15.00,2017-07-22 19:46:00,
2017-07-22 15:51:00,81.2,74.1,29.77,SSE,149,0.0,0.0,79,0.00,,-RA,0.00,VWS V15.00,2017-07-22 19:51:00,
2017-07-22 15:56:00,81.3,74.2,29.77,SSE,149,0.0,0.0,79,0.00,,-RA,0.00,VWS V15.00,2017-07-22 19:56:00,
2017-07-22 16:01:00,81.2,74.1,29.76,SSE,149,0.0,2.0,79,0.00,,-RA,0.00,VWS V15.00,2017-07-22 20:01:00,
2017-07-22 16:06:00,81.2,74.4,29.76,SSE,149,0.0,0.0,80,0.00,,-RA,0.00,VWS V15.00,2017-07-22 20:06:00,
2017-07-22 16:11:00,81.2,74.4,29.76,SSE,149,0.0,0.0,80,0.00,,-RA,0.00,VWS V15.00,2017-07-22 20:11:00,
2017-07-22 16:16:00,81.1,74.7,29.76,SSE,149,0.0,0.0,81,0.00,,-RA,0.00,VWS V15.00,2017-07-22 20:16:00,
2017-07-22 16:21:00,80.9,74.5,29.76,SSE,149,0.0,0.0,81,0.00,,-RA,0.00,VWS V15.00,2017-07-22 20:21:00,
2017-07-22 16:26:00,80.6,74.6,29.76,SSE,149,0.0,1.0,82,0.00,,-RA,0.00,VWS V15.00,2017-07-22 20:26:00,
2017-07-22 16:31:00,80.4,74.8,29.76,SSE,149,0.0,0.0,83,0.00,,-RA,0.00,VWS V15.00,2017-07-22 20:31:00,
2017-07-22 16:36:00,80.2,74.6,29.76,SSE,149,0.0,0.0,83,0.00,,-RA,0.00,VWS V15.00,2017-07-22 20:36:00,
2017-07-22 16:41:00,80.0,74.4,29.76,NNW,338,4.0,5.0,83,0.00,,-RA,0.00,VWS V15.00,2017-07-22 20:41:00,
2017-07-22 16:46:00,79.5,73.9,29.76,NNW,346,0.0,5.0,83,0.00,,-RA,0.00,VWS V15.00,2017-07-22 20:46:00,
2017-07-22 16:51:00,78.7,73.5,29.76,ENE,78,0.0,5.0,84,0.00,,-RA,0.00,VWS V15.00,2017-07-22 20:51:00,
2017-07-22 16:56:00,78.0,73.1,29.76,ENE,69,0.0,6.0,85,0.00,,-RA,0.00,VWS V15.00,2017-07-22 20:56:00,
2017-07-22 17:01:00,77.5,73.0,29.76,NE,52,3.0,3.0,86,0.00,,-RA,0.00,VWS V15.00,2017-07-22 21:01:00,
2017-07-22 17:06:00,77.1,73.3,29.76,ENE,57,1.0,5.0,88,0.00,,-RA,0.00,VWS V15.00,2017-07-22 21:06:00,
2017-07-22 17:11:00,76.9,73.1,29.76,NE,55,0.0,5.0,88,0.00,,-RA,0.00,VWS V15.00,2017-07-22 21:11:00,
2017-07-22 17:17:00,76.4,72.9,29.76,ENE,76,3.0,7.0,89,0.00,,-RA,0.00,VWS V15.00,2017-07-22 21:17:00,
2017-07-22 17:22:00,76.2,72.7,29.76,ENE,71,0.0,7.0,89,0.00,,-RA,0.00,VWS V15.00,2017-07-22 21:22:00,
2017-07-22 17:27:00,76.2,72.7,29.76,East,86,0.0,7.0,89,0.00,,-RA,0.00,VWS V15.00,2017-07-22 21:27:00,
2017-07-22 17:32:00,76.1,73.0,29.76,East,90,3.0,3.0,90,0.00,,-RA,0.00,VWS V15.00,2017-07-22 21:32:00,
2017-07-22 17:37:00,75.9,72.8,29.76,East,80,0.0,4.0,90,0.00,,-RA,0.00,VWS V15.00,2017-07-22 21:37:00,
2017-07-22 17:42:00,75.8,72.7,29.76,East,80,0.0,4.0,90,0.00,,-RA,0.00,VWS V15.00,2017-07-22 21:42:00,
2017-07-22 17:47:00,75.9,72.8,29.76,East,80,0.0,4.0,90,0.00,,-RA,0.00,VWS V15.00,2017-07-22 21:47:00,
2017-07-22 17:52:00,75.9,72.8,29.76,East,80,3.0,4.0,90,0.00,,-RA,0.00,VWS V15.00,2017-07-22 21:52:00,
2017-07-22 17:57:00,75.8,72.7,29.76,East,79,0.0,4.0,90,0.00,,-RA,0.00,VWS V15.00,2017-07-22 21:57:00,
2017-07-22 18:02:00,75.8,72.7,29.76,East,79,0.0,2.0,90,0.00,,-RA,0.00,VWS V15.00,2017-07-22 22:02:00,
2017-07-22 18:07:00,75.8,72.7,29.77,North,349,0.0,4.0,90,0.00,,-RA,0.00,VWS V15.00,2017-07-22 22:07:00,
2017-07-22 18:12:00,75.8,72.7,29.77,North,350,0.0,4.0,90,0.00,,-RA,0.00,VWS V15.00,2017-07-22 22:12:00,
2017-07-22 18:17:00,75.8,72.7,29.76,North,355,0.0,4.0,90,0.00,,-RA,0.00,VWS V15.00,2017-07-22 22:17:00,
2017-07-22 18:22:00,75.7,72.2,29.77,North,355,0.0,4.0,89,0.00,,-RA,0.00,VWS V15.00,2017-07-22 22:22:00,
2017-07-22 18:27:00,75.7,72.2,29.77,North,355,0.0,4.0,89,0.00,,-RA,0.00,VWS V15.00,2017-07-22 22:27:00,
2017-07-22 18:32:00,75.8,72.3,29.76,North,355,0.0,1.0,89,0.00,,-RA,0.00,VWS V15.00,2017-07-22 22:32:00,
2017-07-22 18:37:00,75.8,72.3,29.76,North,355,0.0,2.0,89,0.00,,-RA,0.00,VWS V15.00,2017-07-22 22:37:00,
2017-07-22 18:42:00,75.9,72.4,29.76,North,355,1.0,3.0,89,0.00,,-RA,0.00,VWS V15.00,2017-07-22 22:42:00,
2017-07-22 18:47:00,76.0,72.2,29.76,North,5,0.0,3.0,88,0.00,,-RA,0.00,VWS V15.00,2017-07-22 22:47:00,
2017-07-22 18:52:00,76.2,72.4,29.76,North,5,2.0,4.0,88,0.00,,-RA,0.00,VWS V15.00,2017-07-22 22:52:00,
2017-07-22 18:57:00,76.5,72.3,29.76,NE,44,3.0,4.0,87,0.00,,-RA,0.00,VWS V15.00,2017-07-22 22:57:00,
2017-07-22 19:02:00,76.7,72.2,29.76,NE,53,0.0,2.0,86,0.00,,-RA,0.00,VWS V15.00,2017-07-22 23:02:00,
2017-07-22 19:07:00,76.8,71.9,29.76,NE,53,0.0,4.0,85,0.00,,-RA,0.00,VWS V15.00,2017-07-22 23:07:00,
2017-07-22 19:12:00,76.8,71.9,29.76,NE,53,0.0,4.0,85,0.00,,-RA,0.00,VWS V15.00,2017-07-22 23:12:00,
2017-07-22 19:17:00,76.7,71.9,29.76,NE,53,0.0,4.0,85,0.00,,-RA,0.00,VWS V15.00,2017-07-22 23:17:00,
2017-07-22 19:22:00,76.6,71.8,29.76,NE,53,0.0,4.0,85,0.00,,-RA,0.00,VWS V15.00,2017-07-22 23:22:00,
2017-07-22 19:27:00,76.6,72.1,29.76,NE,53,0.0,4.0,86,0.00,,-RA,0.00,VWS V15.00,2017-07-22 23:27:00,
2017-07-22 19:32:00,76.6,72.1,29.77,NE,53,0.0,0.0,86,0.00,,-RA,0.00,VWS V15.00,2017-07-22 23:32:00,
2017-07-22 19:33:00,76.6,72.1,29.77,NE,53,0.0,0.0,86,0.00,,-RA,0.00,VWS V15.00,2017-07-22 23:33:00,
2017-07-22 19:38:00,76.6,72.1,29.77,NE,53,0.0,0.0,86,0.00,,-RA,0.00,VWS V15.00,2017-07-22 23:38:00,
2017-07-22 19:43:00,76.6,72.1,29.77,NE,53,0.0,0.0,86,0.00,,-RA,0.00,VWS V15.00,2017-07-22 23:43:00,
2017-07-22 19:48:00,76.6,72.1,29.76,NE,53,0.0,0.0,86,0.00,,-RA,0.00,VWS V15.00,2017-07-22 23:48:00,
2017-07-22 19:53:00,76.5,72.0,29.76,NE,53,0.0,0.0,86,0.00,,-RA,0.00,VWS V15.00,2017-07-22 23:53:00,
2017-07-22 19:58:00,76.5,72.0,29.76,NE,53,0.0,0.0,86,0.00,,-RA,0.00,VWS V15.00,2017-07-22 23:58:00,
2017-07-22 20:03:00,76.5,72.0,29.76,NE,53,0.0,0.0,86,0.00,,-RA,0.00,VWS V15.00,2017-07-23 00:03:00,
2017-07-22 20:08:00,76.5,72.3,29.76,NE,53,0.0,0.0,87,0.00,,-RA,0.00,VWS V15.00,2017-07-23 00:08:00,
2017-07-22 20:13:00,76.5,72.3,29.76,NE,53,0.0,0.0,87,0.00,,-RA,0.00,VWS V15.00,2017-07-23 00:13:00,
2017-07-22 20:18:00,76.5,72.0,29.76,NE,53,0.0,0.0,86,0.00,,-RA,0.00,VWS V15.00,2017-07-23 00:18:00,
2017-07-22 20:23:00,76.5,72.0,29.76,NE,53,0.0,0.0,86,0.00,,-RA,0.00,VWS V15.00,2017-07-23 00:23:00,
2017-07-22 20:28:00,76.4,71.9,29.76,NE,53,0.0,0.0,86,0.00,,-RA,0.00,VWS V15.00,2017-07-23 00:28:00,
2017-07-22 20:29:00,76.4,71.9,29.76,NE,53,0.0,0.0,86,0.00,,-RA,0.00,VWS V15.00,2017-07-23 00:29:00,
2017-07-22 20:34:00,76.3,71.8,29.76,NE,53,0.0,0.0,86,0.00,,-RA,0.00,VWS V15.00,2017-07-23 00:34:00,
2017-07-22 20:39:00,76.2,71.7,29.76,NE,53,0.0,1.0,86,0.00,,-RA,0.00,VWS V15.00,2017-07-23 00:39:00,
2017-07-22 20:44:00,76.1,71.6,29.76,NE,53,0.0,1.0,86,0.00,,-RA,0.00,VWS V15.00,2017-07-23 00:44:00,
2017-07-22 20:49:00,76.1,71.6,29.77,NE,53,0.0,1.0,86,0.00,,-RA,0.00,VWS V15.00,2017-07-23 00:49:00,
2017-07-22 20:54:00,76.0,71.5,29.77,NE,53,0.0,1.0,86,0.00,,-RA,0.00,VWS V15.00,2017-07-23 00:54:00,
2017-07-22 20:59:00,75.9,71.8,29.76,NE,53,0.0,1.0,87,0.00,,-RA,0.00,VWS V15.00,2017-07-23 00:59:00,
2017-07-22 21:04:00,75.8,71.7,29.76,NE,53,0.0,0.0,87,0.00,,-RA,0.00,VWS V15.00,2017-07-23 01:04:00,
2017-07-22 21:09:00,75.7,71.6,29.76,NE,53,0.0,0.0,87,0.00,,-RA,0.00,VWS V15.00,2017-07-23 01:09:00,
2017-07-22 21:14:00,75.6,71.5,29.76,NE,53,0.0,0.0,87,0.00,,-RA,0.00,VWS V15.00,2017-07-23 01:14:00,
2017-07-22 21:19:00,75.5,71.4,29.76,NE,53,0.0,0.0,87,0.00,,-RA,0.00,VWS V15.00,2017-07-23 01:19:00,
2017-07-22 21:24:00,75.3,71.5,29.77,NE,53,0.0,0.0,88,0.00,,-RA,0.00,VWS V15.00,2017-07-23 01:24:00,
2017-07-22 21:29:00,75.2,71.4,29.77,NE,53,0.0,0.0,88,0.00,,-RA,0.00,VWS V15.00,2017-07-23 01:29:00,
2017-07-22 21:34:00,75.1,71.3,29.77,NE,53,0.0,0.0,88,0.00,,-RA,0.00,VWS V15.00,2017-07-23 01:34:00,
2017-07-22 21:39:00,74.9,71.4,29.77,NE,53,0.0,0.0,89,0.00,,-RA,0.00,VWS V15.00,2017-07-23 01:39:00,
2017-07-22 21:44:00,74.8,71.3,29.77,NE,53,0.0,0.0,89,0.00,,-RA,0.00,VWS V15.00,2017-07-23 01:44:00,
2017-07-22 21:49:00,74.7,71.2,29.78,NE,53,0.0,0.0,89,0.00,,-RA,0.00,VWS V15.00,2017-07-23 01:49:00,
2017-07-22 21:54:00,74.6,71.2,29.77,NE,53,0.0,0.0,89,0.00,,-RA,0.00,VWS V15.00,2017-07-23 01:54:00,
2017-07-22 21:59:00,74.5,71.1,29.78,NE,53,0.0,0.0,89,0.00,,-RA,0.00,VWS V15.00,2017-07-23 01:59:00,
2017-07-22 22:04:00,74.4,71.3,29.77,NE,53,0.0,0.0,90,0.00,,-RA,0.00,VWS V15.00,2017-07-23 02:04:00,
2017-07-22 22:09:00,74.4,71.3,29.78,NE,53,0.0,0.0,90,0.00,,-RA,0.00,VWS V15.00,2017-07-23 02:09:00,
2017-07-22 22:14:00,74.3,71.2,29.78,NE,53,0.0,0.0,90,0.00,,-RA,0.00,VWS V15.00,2017-07-23 02:14:00,
2017-07-22 22:19:00,74.3,71.2,29.78,NE,53,0.0,0.0,90,0.00,,-RA,0.00,VWS V15.00,2017-07-23 02:19:00,
2017-07-22 22:24:00,74.3,71.2,29.78,NE,53,0.0,0.0,90,0.00,,-RA,0.00,VWS V15.00,2017-07-23 02:24:00,
2017-07-22 22:29:00,74.3,71.2,29.78,NE,53,0.0,0.0,90,0.00,,-RA,0.00,VWS V15.00,2017-07-23 02:29:00,
2017-07-22 22:34:00,74.3,71.2,29.78,NE,53,0.0,0.0,90,0.00,,-RA,0.00,VWS V15.00,2017-07-23 02:34:00,
2017-07-22 22:39:00,74.3,71.5,29.78,NE,53,0.0,0.0,91,0.00,,-RA,0.00,VWS V15.00,2017-07-23 02:39:00,
2017-07-22 22:44:00,74.4,71.6,29.78,NE,53,0.0,0.0,91,0.00,,-RA,0.00,VWS V15.00,2017-07-23 02:44:00,
2017-07-22 22:49:00,74.3,71.2,29.77,NE,53,0.0,0.0,90,0.00,,-RA,0.00,VWS V15.00,2017-07-23 02:49:00,
2017-07-22 22:54:00,74.3,71.2,29.77,NE,53,0.0,0.0,90,0.00,,-RA,0.00,VWS V15.00,2017-07-23 02:54:00,
2017-07-22 22:59:00,74.2,71.4,29.77,NE,53,0.0,0.0,91,0.00,,-RA,0.00,VWS V15.00,2017-07-23 02:59:00,
2017-07-22 23:04:00,74.2,71.1,29.77,NE,53,0.0,0.0,90,0.00,,-RA,0.00,VWS V15.00,2017-07-23 03:04:00,
2017-07-22 23:05:00,74.2,71.1,29.77,NE,53,0.0,0.0,90,0.00,,-RA,0.00,VWS V15.00,2017-07-23 03:05:00,